sensor_id;sensor_type;location;lat;lon;timestamp;P1;durP1;ratioP1;P2;durP2;ratioP2
12302;SDS011;6214;48.012;7.862;2024-03-06T00:00:26;4.20;;;0.68;;
12302;SDS011;6214;48.012;7.862;2024-03-06T00:02:53;3.90;;;0.40;;
12302;SDS011;6214;48.012;7.862;2024-03-06T00:05:21;4.00;;;0.50;;
12302;SDS011;6214;48.012;7.862;2024-03-06T00:07:49;4.22;;;0.68;;
12302;SDS011;6214;48.012;7.862;2024-03-06T00:10:16;4.00;;;0.50;;
12302;SDS011;6214;48.012;7.862;2024-03-06T00:12:43;4.10;;;0.70;;
12302;SDS011;6214;48.012;7.862;2024-03-06T00:15:11;3.95;;;0.50;;
12302;SDS011;6214;48.012;7.862;2024-03-06T00:17:38;4.30;;;0.50;;
12302;SDS011;6214;48.012;7.862;2024-03-06T00:20:06;4.60;;;1.00;;
12302;SDS011;6214;48.012;7.862;2024-03-06T00:22:34;4.30;;;0.80;;
12302;SDS011;6214;48.012;7.862;2024-03-06T00:25:02;4.20;;;0.70;;
12302;SDS011;6214;48.012;7.862;2024-03-06T00:27:29;4.20;;;0.60;;
12302;SDS011;6214;48.012;7.862;2024-03-06T00:29:56;4.00;;;0.50;;
12302;SDS011;6214;48.012;7.862;2024-03-06T00:32:24;4.30;;;0.70;;
12302;SDS011;6214;48.012;7.862;2024-03-06T00:34:51;4.30;;;0.70;;
12302;SDS011;6214;48.012;7.862;2024-03-06T00:37:18;3.90;;;0.50;;
12302;SDS011;6214;48.012;7.862;2024-03-06T00:39:46;4.15;;;0.55;;
12302;SDS011;6214;48.012;7.862;2024-03-06T00:42:13;4.00;;;0.50;;
12302;SDS011;6214;48.012;7.862;2024-03-06T00:44:41;4.00;;;0.50;;
12302;SDS011;6214;48.012;7.862;2024-03-06T00:47:08;4.00;;;0.50;;
12302;SDS011;6214;48.012;7.862;2024-03-06T00:49:36;4.10;;;0.50;;
12302;SDS011;6214;48.012;7.862;2024-03-06T00:52:05;4.10;;;0.50;;
12302;SDS011;6214;48.012;7.862;2024-03-06T00:54:32;4.00;;;0.50;;
12302;SDS011;6214;48.012;7.862;2024-03-06T00:57:00;4.00;;;0.50;;
12302;SDS011;6214;48.012;7.862;2024-03-06T00:59:28;4.10;;;0.60;;
12302;SDS011;6214;48.012;7.862;2024-03-06T01:01:55;4.10;;;0.57;;
12302;SDS011;6214;48.012;7.862;2024-03-06T01:04:23;3.90;;;0.40;;
12302;SDS011;6214;48.012;7.862;2024-03-06T01:06:50;3.90;;;0.40;;
12302;SDS011;6214;48.012;7.862;2024-03-06T01:09:18;4.00;;;0.50;;
12302;SDS011;6214;48.012;7.862;2024-03-06T01:11:45;4.20;;;0.70;;
12302;SDS011;6214;48.012;7.862;2024-03-06T01:14:14;4.03;;;0.60;;
12302;SDS011;6214;48.012;7.862;2024-03-06T01:16:42;4.00;;;0.50;;
12302;SDS011;6214;48.012;7.862;2024-03-06T01:19:10;3.90;;;0.30;;
12302;SDS011;6214;48.012;7.862;2024-03-06T01:21:38;4.00;;;0.50;;
12302;SDS011;6214;48.012;7.862;2024-03-06T01:24:05;4.50;;;0.70;;
12302;SDS011;6214;48.012;7.862;2024-03-06T01:26:33;4.20;;;0.70;;
12302;SDS011;6214;48.012;7.862;2024-03-06T01:29:00;4.00;;;0.50;;
12302;SDS011;6214;48.012;7.862;2024-03-06T01:31:27;4.00;;;0.50;;
12302;SDS011;6214;48.012;7.862;2024-03-06T01:33:55;3.90;;;0.40;;
12302;SDS011;6214;48.012;7.862;2024-03-06T01:36:22;4.10;;;0.60;;
12302;SDS011;6214;48.012;7.862;2024-03-06T01:38:49;4.18;;;0.60;;
12302;SDS011;6214;48.012;7.862;2024-03-06T01:41:17;4.20;;;0.80;;
12302;SDS011;6214;48.012;7.862;2024-03-06T01:43:44;4.38;;;0.90;;
12302;SDS011;6214;48.012;7.862;2024-03-06T01:46:11;4.30;;;0.90;;
12302;SDS011;6214;48.012;7.862;2024-03-06T01:48:38;4.20;;;0.70;;
12302;SDS011;6214;48.012;7.862;2024-03-06T01:51:07;4.20;;;0.60;;
12302;SDS011;6214;48.012;7.862;2024-03-06T01:53:34;4.13;;;0.60;;
12302;SDS011;6214;48.012;7.862;2024-03-06T01:56:03;4.40;;;0.80;;
12302;SDS011;6214;48.012;7.862;2024-03-06T01:58:30;4.70;;;0.90;;
12302;SDS011;6214;48.012;7.862;2024-03-06T02:01:00;4.20;;;0.80;;
12302;SDS011;6214;48.012;7.862;2024-03-06T02:03:27;4.10;;;0.70;;
12302;SDS011;6214;48.012;7.862;2024-03-06T02:05:56;4.00;;;0.50;;
12302;SDS011;6214;48.012;7.862;2024-03-06T02:08:25;4.03;;;0.50;;
12302;SDS011;6214;48.012;7.862;2024-03-06T02:10:52;4.20;;;0.60;;
12302;SDS011;6214;48.012;7.862;2024-03-06T02:13:19;4.10;;;0.60;;
12302;SDS011;6214;48.012;7.862;2024-03-06T02:15:47;4.20;;;0.70;;
12302;SDS011;6214;48.012;7.862;2024-03-06T02:18:15;4.30;;;0.80;;
12302;SDS011;6214;48.012;7.862;2024-03-06T02:20:43;4.20;;;0.77;;
12302;SDS011;6214;48.012;7.862;2024-03-06T02:23:12;4.10;;;0.70;;
12302;SDS011;6214;48.012;7.862;2024-03-06T02:25:41;4.20;;;0.60;;
12302;SDS011;6214;48.012;7.862;2024-03-06T02:28:08;4.90;;;1.10;;
12302;SDS011;6214;48.012;7.862;2024-03-06T02:30:35;4.75;;;1.30;;
12302;SDS011;6214;48.012;7.862;2024-03-06T02:33:04;4.70;;;1.50;;
12302;SDS011;6214;48.012;7.862;2024-03-06T02:35:33;5.00;;;1.40;;
12302;SDS011;6214;48.012;7.862;2024-03-06T02:38:04;4.72;;;1.30;;
12302;SDS011;6214;48.012;7.862;2024-03-06T02:40:32;5.18;;;1.30;;
12302;SDS011;6214;48.012;7.862;2024-03-06T02:42:59;5.10;;;1.30;;
12302;SDS011;6214;48.012;7.862;2024-03-06T02:45:27;4.60;;;1.30;;
12302;SDS011;6214;48.012;7.862;2024-03-06T02:47:54;4.88;;;1.30;;
12302;SDS011;6214;48.012;7.862;2024-03-06T02:50:22;4.60;;;1.30;;
12302;SDS011;6214;48.012;7.862;2024-03-06T02:52:50;4.80;;;1.20;;
12302;SDS011;6214;48.012;7.862;2024-03-06T02:55:19;4.40;;;1.10;;
12302;SDS011;6214;48.012;7.862;2024-03-06T02:57:46;4.30;;;0.80;;
12302;SDS011;6214;48.012;7.862;2024-03-06T03:00:14;4.15;;;0.70;;
12302;SDS011;6214;48.012;7.862;2024-03-06T03:02:42;3.90;;;0.50;;
12302;SDS011;6214;48.012;7.862;2024-03-06T03:05:10;4.20;;;0.80;;
12302;SDS011;6214;48.012;7.862;2024-03-06T03:07:37;4.20;;;0.80;;
12302;SDS011;6214;48.012;7.862;2024-03-06T03:10:05;4.10;;;0.70;;
12302;SDS011;6214;48.012;7.862;2024-03-06T03:12:32;4.15;;;0.60;;
12302;SDS011;6214;48.012;7.862;2024-03-06T03:15:00;4.00;;;0.50;;
12302;SDS011;6214;48.012;7.862;2024-03-06T03:17:27;4.10;;;0.50;;
12302;SDS011;6214;48.012;7.862;2024-03-06T03:19:55;4.10;;;0.60;;
12302;SDS011;6214;48.012;7.862;2024-03-06T03:22:22;4.10;;;0.60;;
12302;SDS011;6214;48.012;7.862;2024-03-06T03:24:49;4.00;;;0.60;;
12302;SDS011;6214;48.012;7.862;2024-03-06T03:27:17;4.00;;;0.60;;
12302;SDS011;6214;48.012;7.862;2024-03-06T03:29:44;4.10;;;0.60;;
12302;SDS011;6214;48.012;7.862;2024-03-06T03:32:12;4.00;;;0.50;;
12302;SDS011;6214;48.012;7.862;2024-03-06T03:34:39;4.40;;;0.70;;
12302;SDS011;6214;48.012;7.862;2024-03-06T03:37:06;4.18;;;0.52;;
12302;SDS011;6214;48.012;7.862;2024-03-06T03:39:35;4.07;;;0.60;;
12302;SDS011;6214;48.012;7.862;2024-03-06T03:42:02;4.10;;;0.60;;
12302;SDS011;6214;48.012;7.862;2024-03-06T03:44:29;4.00;;;0.50;;
12302;SDS011;6214;48.012;7.862;2024-03-06T03:46:56;4.13;;;0.70;;
12302;SDS011;6214;48.012;7.862;2024-03-06T03:49:23;4.20;;;0.60;;
12302;SDS011;6214;48.012;7.862;2024-03-06T03:51:50;4.00;;;0.50;;
12302;SDS011;6214;48.012;7.862;2024-03-06T03:54:18;4.00;;;0.55;;
12302;SDS011;6214;48.012;7.862;2024-03-06T03:56:44;4.20;;;0.70;;
12302;SDS011;6214;48.012;7.862;2024-03-06T03:59:11;4.15;;;0.60;;
12302;SDS011;6214;48.012;7.862;2024-03-06T04:01:38;4.00;;;0.60;;
12302;SDS011;6214;48.012;7.862;2024-03-06T04:04:06;4.35;;;0.90;;
12302;SDS011;6214;48.012;7.862;2024-03-06T04:06:34;4.30;;;0.90;;
12302;SDS011;6214;48.012;7.862;2024-03-06T04:09:01;4.47;;;1.20;;
12302;SDS011;6214;48.012;7.862;2024-03-06T04:11:31;4.68;;;1.00;;
12302;SDS011;6214;48.012;7.862;2024-03-06T04:14:03;4.60;;;1.10;;
12302;SDS011;6214;48.012;7.862;2024-03-06T04:16:30;4.60;;;1.00;;
12302;SDS011;6214;48.012;7.862;2024-03-06T04:19:00;4.40;;;1.00;;
12302;SDS011;6214;48.012;7.862;2024-03-06T04:21:27;4.40;;;1.00;;
12302;SDS011;6214;48.012;7.862;2024-03-06T04:23:55;5.10;;;1.20;;
12302;SDS011;6214;48.012;7.862;2024-03-06T04:26:22;4.20;;;0.80;;
12302;SDS011;6214;48.012;7.862;2024-03-06T04:28:49;4.00;;;0.50;;
12302;SDS011;6214;48.012;7.862;2024-03-06T04:31:17;4.00;;;0.60;;
12302;SDS011;6214;48.012;7.862;2024-03-06T04:33:45;4.28;;;0.80;;
12302;SDS011;6214;48.012;7.862;2024-03-06T04:36:13;4.40;;;0.90;;
12302;SDS011;6214;48.012;7.862;2024-03-06T04:38:40;4.00;;;0.50;;
12302;SDS011;6214;48.012;7.862;2024-03-06T04:41:07;4.00;;;0.70;;
12302;SDS011;6214;48.012;7.862;2024-03-06T04:43:37;4.30;;;1.00;;
12302;SDS011;6214;48.012;7.862;2024-03-06T04:46:04;4.30;;;0.90;;
12302;SDS011;6214;48.012;7.862;2024-03-06T04:48:31;4.50;;;0.90;;
12302;SDS011;6214;48.012;7.862;2024-03-06T04:50:59;4.10;;;0.70;;
12302;SDS011;6214;48.012;7.862;2024-03-06T04:53:26;4.20;;;0.80;;
12302;SDS011;6214;48.012;7.862;2024-03-06T04:55:53;4.20;;;0.70;;
12302;SDS011;6214;48.012;7.862;2024-03-06T04:58:21;4.25;;;0.80;;
12302;SDS011;6214;48.012;7.862;2024-03-06T05:00:48;4.20;;;0.80;;
12302;SDS011;6214;48.012;7.862;2024-03-06T05:03:15;4.10;;;0.60;;
12302;SDS011;6214;48.012;7.862;2024-03-06T05:06:00;4.20;;;0.80;;
12302;SDS011;6214;48.012;7.862;2024-03-06T05:08:45;4.10;;;0.80;;
12302;SDS011;6214;48.012;7.862;2024-03-06T05:11:30;4.10;;;0.60;;
12302;SDS011;6214;48.012;7.862;2024-03-06T05:14:15;4.30;;;0.70;;
12302;SDS011;6214;48.012;7.862;2024-03-06T05:17:00;4.10;;;0.60;;
12302;SDS011;6214;48.012;7.862;2024-03-06T05:19:45;4.00;;;0.60;;
12302;SDS011;6214;48.012;7.862;2024-03-06T05:22:31;4.10;;;0.60;;
12302;SDS011;6214;48.012;7.862;2024-03-06T05:25:16;4.05;;;0.57;;
12302;SDS011;6214;48.012;7.862;2024-03-06T05:28:01;4.00;;;0.60;;
12302;SDS011;6214;48.012;7.862;2024-03-06T05:30:48;4.10;;;0.60;;
12302;SDS011;6214;48.012;7.862;2024-03-06T05:33:33;4.10;;;0.50;;
12302;SDS011;6214;48.012;7.862;2024-03-06T05:36:17;4.60;;;0.80;;
12302;SDS011;6214;48.012;7.862;2024-03-06T05:39:02;4.00;;;0.60;;
12302;SDS011;6214;48.012;7.862;2024-03-06T05:41:50;4.00;;;0.60;;
12302;SDS011;6214;48.012;7.862;2024-03-06T05:44:36;4.00;;;0.50;;
12302;SDS011;6214;48.012;7.862;2024-03-06T05:47:21;4.00;;;0.60;;
12302;SDS011;6214;48.012;7.862;2024-03-06T05:50:06;4.30;;;0.60;;
12302;SDS011;6214;48.012;7.862;2024-03-06T05:52:51;4.30;;;0.73;;
12302;SDS011;6214;48.012;7.862;2024-03-06T05:55:36;3.90;;;0.50;;
12302;SDS011;6214;48.012;7.862;2024-03-06T05:58:21;4.30;;;0.60;;
12302;SDS011;6214;48.012;7.862;2024-03-06T06:00:48;4.30;;;0.70;;
12302;SDS011;6214;48.012;7.862;2024-03-06T06:03:15;4.30;;;0.70;;
12302;SDS011;6214;48.012;7.862;2024-03-06T06:05:43;4.40;;;0.70;;
12302;SDS011;6214;48.012;7.862;2024-03-06T06:08:11;4.70;;;0.90;;
12302;SDS011;6214;48.012;7.862;2024-03-06T06:10:38;4.00;;;0.60;;
12302;SDS011;6214;48.012;7.862;2024-03-06T06:13:07;4.00;;;0.50;;
12302;SDS011;6214;48.012;7.862;2024-03-06T06:15:34;4.00;;;0.50;;
12302;SDS011;6214;48.012;7.862;2024-03-06T06:18:01;4.00;;;0.50;;
12302;SDS011;6214;48.012;7.862;2024-03-06T06:20:29;4.10;;;0.60;;
12302;SDS011;6214;48.012;7.862;2024-03-06T06:22:56;4.20;;;0.60;;
12302;SDS011;6214;48.012;7.862;2024-03-06T06:25:24;4.13;;;0.75;;
12302;SDS011;6214;48.012;7.862;2024-03-06T06:27:51;4.60;;;0.98;;
12302;SDS011;6214;48.012;7.862;2024-03-06T06:30:19;4.10;;;0.60;;
12302;SDS011;6214;48.012;7.862;2024-03-06T06:32:46;4.10;;;0.70;;
12302;SDS011;6214;48.012;7.862;2024-03-06T06:35:13;4.20;;;0.80;;
12302;SDS011;6214;48.012;7.862;2024-03-06T06:37:41;4.37;;;0.80;;
12302;SDS011;6214;48.012;7.862;2024-03-06T06:40:08;4.10;;;0.70;;
12302;SDS011;6214;48.012;7.862;2024-03-06T06:42:36;4.20;;;0.70;;
12302;SDS011;6214;48.012;7.862;2024-03-06T06:45:05;4.10;;;0.60;;
12302;SDS011;6214;48.012;7.862;2024-03-06T06:47:36;4.00;;;0.50;;
12302;SDS011;6214;48.012;7.862;2024-03-06T06:50:03;4.20;;;0.70;;
12302;SDS011;6214;48.012;7.862;2024-03-06T06:52:32;4.20;;;0.70;;
12302;SDS011;6214;48.012;7.862;2024-03-06T06:55:01;4.30;;;0.80;;
12302;SDS011;6214;48.012;7.862;2024-03-06T06:57:28;4.20;;;0.70;;
12302;SDS011;6214;48.012;7.862;2024-03-06T06:59:55;4.10;;;0.80;;
12302;SDS011;6214;48.012;7.862;2024-03-06T07:02:23;4.45;;;0.75;;
12302;SDS011;6214;48.012;7.862;2024-03-06T07:04:51;4.00;;;0.60;;
12302;SDS011;6214;48.012;7.862;2024-03-06T07:07:19;4.20;;;0.70;;
12302;SDS011;6214;48.012;7.862;2024-03-06T07:09:47;4.10;;;0.70;;
12302;SDS011;6214;48.012;7.862;2024-03-06T07:12:15;4.10;;;0.60;;
12302;SDS011;6214;48.012;7.862;2024-03-06T07:14:42;4.10;;;0.70;;
12302;SDS011;6214;48.012;7.862;2024-03-06T07:17:10;3.90;;;0.50;;
12302;SDS011;6214;48.012;7.862;2024-03-06T07:19:37;3.90;;;0.50;;
12302;SDS011;6214;48.012;7.862;2024-03-06T07:22:06;4.00;;;0.50;;
12302;SDS011;6214;48.012;7.862;2024-03-06T07:24:33;3.97;;;0.53;;
12302;SDS011;6214;48.012;7.862;2024-03-06T07:27:04;4.30;;;0.50;;
12302;SDS011;6214;48.012;7.862;2024-03-06T07:29:32;4.20;;;0.60;;
12302;SDS011;6214;48.012;7.862;2024-03-06T07:31:59;4.05;;;0.52;;
12302;SDS011;6214;48.012;7.862;2024-03-06T07:34:26;4.00;;;0.60;;
12302;SDS011;6214;48.012;7.862;2024-03-06T07:36:54;4.05;;;0.50;;
12302;SDS011;6214;48.012;7.862;2024-03-06T07:39:21;4.10;;;0.50;;
12302;SDS011;6214;48.012;7.862;2024-03-06T07:41:49;4.03;;;0.50;;
12302;SDS011;6214;48.012;7.862;2024-03-06T07:44:17;4.10;;;0.50;;
12302;SDS011;6214;48.012;7.862;2024-03-06T07:46:44;3.97;;;0.40;;
12302;SDS011;6214;48.012;7.862;2024-03-06T07:49:11;4.00;;;0.50;;
12302;SDS011;6214;48.012;7.862;2024-03-06T07:51:39;4.10;;;0.50;;
12302;SDS011;6214;48.012;7.862;2024-03-06T07:54:09;4.15;;;0.57;;
12302;SDS011;6214;48.012;7.862;2024-03-06T07:56:36;4.10;;;0.60;;
12302;SDS011;6214;48.012;7.862;2024-03-06T07:59:04;3.90;;;0.40;;
12302;SDS011;6214;48.012;7.862;2024-03-06T08:01:31;4.00;;;0.60;;
12302;SDS011;6214;48.012;7.862;2024-03-06T08:03:59;3.90;;;0.40;;
12302;SDS011;6214;48.012;7.862;2024-03-06T08:06:28;3.90;;;0.40;;
12302;SDS011;6214;48.012;7.862;2024-03-06T08:08:58;4.10;;;0.40;;
12302;SDS011;6214;48.012;7.862;2024-03-06T08:11:28;3.90;;;0.40;;
12302;SDS011;6214;48.012;7.862;2024-03-06T08:13:59;4.00;;;0.43;;
12302;SDS011;6214;48.012;7.862;2024-03-06T08:16:28;3.90;;;0.40;;
12302;SDS011;6214;48.012;7.862;2024-03-06T08:19:00;4.03;;;0.40;;
12302;SDS011;6214;48.012;7.862;2024-03-06T08:21:28;4.00;;;0.40;;
12302;SDS011;6214;48.012;7.862;2024-03-06T08:23:55;3.90;;;0.40;;
12302;SDS011;6214;48.012;7.862;2024-03-06T08:26:23;4.03;;;0.40;;
12302;SDS011;6214;48.012;7.862;2024-03-06T08:28:50;3.90;;;0.50;;
12302;SDS011;6214;48.012;7.862;2024-03-06T08:31:18;3.90;;;0.40;;
12302;SDS011;6214;48.012;7.862;2024-03-06T08:33:48;4.00;;;0.50;;
12302;SDS011;6214;48.012;7.862;2024-03-06T08:36:15;4.00;;;0.50;;
12302;SDS011;6214;48.012;7.862;2024-03-06T08:38:42;4.10;;;0.70;;
12302;SDS011;6214;48.012;7.862;2024-03-06T08:41:10;4.10;;;0.60;;
12302;SDS011;6214;48.012;7.862;2024-03-06T08:43:38;3.97;;;0.50;;
12302;SDS011;6214;48.012;7.862;2024-03-06T08:46:05;4.00;;;0.43;;
12302;SDS011;6214;48.012;7.862;2024-03-06T08:48:33;3.90;;;0.40;;
12302;SDS011;6214;48.012;7.862;2024-03-06T08:51:00;4.00;;;0.50;;
12302;SDS011;6214;48.012;7.862;2024-03-06T08:53:29;3.90;;;0.40;;
12302;SDS011;6214;48.012;7.862;2024-03-06T08:55:56;3.90;;;0.40;;
12302;SDS011;6214;48.012;7.862;2024-03-06T08:58:24;4.00;;;0.50;;
12302;SDS011;6214;48.012;7.862;2024-03-06T09:00:51;4.00;;;0.50;;
12302;SDS011;6214;48.012;7.862;2024-03-06T09:03:20;4.00;;;0.43;;
12302;SDS011;6214;48.012;7.862;2024-03-06T09:05:47;4.00;;;0.50;;
12302;SDS011;6214;48.012;7.862;2024-03-06T09:08:14;4.18;;;0.60;;
12302;SDS011;6214;48.012;7.862;2024-03-06T09:10:42;4.00;;;0.40;;
12302;SDS011;6214;48.012;7.862;2024-03-06T09:13:09;3.90;;;0.40;;
12302;SDS011;6214;48.012;7.862;2024-03-06T09:15:36;3.90;;;0.40;;
12302;SDS011;6214;48.012;7.862;2024-03-06T09:18:04;4.00;;;0.50;;
12302;SDS011;6214;48.012;7.862;2024-03-06T09:20:32;4.10;;;0.40;;
12302;SDS011;6214;48.012;7.862;2024-03-06T09:23:00;3.90;;;0.40;;
12302;SDS011;6214;48.012;7.862;2024-03-06T09:25:27;3.90;;;0.30;;
12302;SDS011;6214;48.012;7.862;2024-03-06T09:27:56;4.90;;;0.60;;
12302;SDS011;6214;48.012;7.862;2024-03-06T09:30:23;4.00;;;0.50;;
12302;SDS011;6214;48.012;7.862;2024-03-06T09:32:51;3.90;;;0.50;;
12302;SDS011;6214;48.012;7.862;2024-03-06T09:35:19;4.00;;;0.50;;
12302;SDS011;6214;48.012;7.862;2024-03-06T09:37:46;4.00;;;0.50;;
12302;SDS011;6214;48.012;7.862;2024-03-06T09:40:20;4.00;;;0.50;;
12302;SDS011;6214;48.012;7.862;2024-03-06T09:42:51;4.45;;;0.70;;
12302;SDS011;6214;48.012;7.862;2024-03-06T09:45:19;4.50;;;0.90;;
12302;SDS011;6214;48.012;7.862;2024-03-06T09:47:47;4.93;;;1.17;;
12302;SDS011;6214;48.012;7.862;2024-03-06T09:50:22;4.50;;;0.95;;
12302;SDS011;6214;48.012;7.862;2024-03-06T09:52:52;4.50;;;0.90;;
12302;SDS011;6214;48.012;7.862;2024-03-06T09:55:20;4.40;;;0.90;;
12302;SDS011;6214;48.012;7.862;2024-03-06T09:57:48;4.47;;;0.88;;
12302;SDS011;6214;48.012;7.862;2024-03-06T10:00:16;4.30;;;0.80;;
12302;SDS011;6214;48.012;7.862;2024-03-06T10:02:59;4.20;;;0.70;;
12302;SDS011;6214;48.012;7.862;2024-03-06T10:05:27;4.45;;;0.90;;
12302;SDS011;6214;48.012;7.862;2024-03-06T10:07:55;4.20;;;0.68;;
12302;SDS011;6214;48.012;7.862;2024-03-06T10:10:22;4.55;;;1.00;;
12302;SDS011;6214;48.012;7.862;2024-03-06T10:12:50;4.43;;;0.85;;
12302;SDS011;6214;48.012;7.862;2024-03-06T10:15:17;4.20;;;0.70;;
12302;SDS011;6214;48.012;7.862;2024-03-06T10:17:45;4.10;;;0.60;;
12302;SDS011;6214;48.012;7.862;2024-03-06T10:20:16;4.32;;;0.60;;
12302;SDS011;6214;48.012;7.862;2024-03-06T10:22:47;4.40;;;0.70;;
12302;SDS011;6214;48.012;7.862;2024-03-06T10:25:24;4.30;;;0.70;;
12302;SDS011;6214;48.012;7.862;2024-03-06T10:28:11;4.20;;;0.63;;
12302;SDS011;6214;48.012;7.862;2024-03-06T10:30:39;4.40;;;0.80;;
12302;SDS011;6214;48.012;7.862;2024-03-06T10:33:09;5.00;;;0.90;;
12302;SDS011;6214;48.012;7.862;2024-03-06T10:35:37;4.32;;;0.70;;
12302;SDS011;6214;48.012;7.862;2024-03-06T10:38:05;4.50;;;0.60;;
12302;SDS011;6214;48.012;7.862;2024-03-06T10:40:36;4.32;;;0.77;;
12302;SDS011;6214;48.012;7.862;2024-03-06T10:43:04;4.90;;;0.90;;
12302;SDS011;6214;48.012;7.862;2024-03-06T10:45:48;4.43;;;0.80;;
12302;SDS011;6214;48.012;7.862;2024-03-06T10:48:18;4.20;;;0.60;;
12302;SDS011;6214;48.012;7.862;2024-03-06T10:50:46;4.82;;;0.80;;
12302;SDS011;6214;48.012;7.862;2024-03-06T10:53:17;4.90;;;0.80;;
12302;SDS011;6214;48.012;7.862;2024-03-06T10:55:49;4.50;;;0.70;;
12302;SDS011;6214;48.012;7.862;2024-03-06T10:58:18;4.50;;;0.50;;
12302;SDS011;6214;48.012;7.862;2024-03-06T11:00:46;4.40;;;0.70;;
12302;SDS011;6214;48.012;7.862;2024-03-06T11:03:14;4.55;;;0.50;;
12302;SDS011;6214;48.012;7.862;2024-03-06T11:05:42;4.40;;;0.60;;
12302;SDS011;6214;48.012;7.862;2024-03-06T11:08:11;4.57;;;0.80;;
12302;SDS011;6214;48.012;7.862;2024-03-06T11:10:39;4.32;;;0.60;;
12302;SDS011;6214;48.012;7.862;2024-03-06T11:15:37;4.67;;;0.90;;
12302;SDS011;6214;48.012;7.862;2024-03-06T11:18:47;4.43;;;0.75;;
12302;SDS011;6214;48.012;7.862;2024-03-06T11:21:41;4.40;;;0.80;;
12302;SDS011;6214;48.012;7.862;2024-03-06T11:26:48;4.75;;;0.80;;
12302;SDS011;6214;48.012;7.862;2024-03-06T11:29:17;4.20;;;0.60;;
12302;SDS011;6214;48.012;7.862;2024-03-06T11:31:59;4.53;;;0.90;;
12302;SDS011;6214;48.012;7.862;2024-03-06T11:34:27;4.80;;;0.90;;
12302;SDS011;6214;48.012;7.862;2024-03-06T11:36:57;4.30;;;0.70;;
12302;SDS011;6214;48.012;7.862;2024-03-06T11:39:27;5.00;;;0.82;;
12302;SDS011;6214;48.012;7.862;2024-03-06T11:42:00;4.40;;;0.70;;
12302;SDS011;6214;48.012;7.862;2024-03-06T11:44:27;4.30;;;0.70;;
12302;SDS011;6214;48.012;7.862;2024-03-06T11:46:57;4.70;;;0.80;;
12302;SDS011;6214;48.012;7.862;2024-03-06T11:49:28;4.97;;;0.90;;
12302;SDS011;6214;48.012;7.862;2024-03-06T11:51:59;4.10;;;0.50;;
12302;SDS011;6214;48.012;7.862;2024-03-06T11:54:31;4.70;;;0.90;;
12302;SDS011;6214;48.012;7.862;2024-03-06T11:57:00;4.50;;;0.80;;
12302;SDS011;6214;48.012;7.862;2024-03-06T11:59:29;4.25;;;0.60;;
12302;SDS011;6214;48.012;7.862;2024-03-06T12:01:59;4.75;;;0.82;;
12302;SDS011;6214;48.012;7.862;2024-03-06T12:04:34;4.60;;;0.80;;
12302;SDS011;6214;48.012;7.862;2024-03-06T12:07:04;4.30;;;0.60;;
12302;SDS011;6214;48.012;7.862;2024-03-06T12:09:33;4.20;;;0.60;;
12302;SDS011;6214;48.012;7.862;2024-03-06T12:12:07;4.53;;;0.60;;
12302;SDS011;6214;48.012;7.862;2024-03-06T12:14:35;4.38;;;0.63;;
12302;SDS011;6214;48.012;7.862;2024-03-06T12:17:06;4.40;;;0.60;;
12302;SDS011;6214;48.012;7.862;2024-03-06T12:19:37;4.10;;;0.50;;
12302;SDS011;6214;48.012;7.862;2024-03-06T12:22:04;4.75;;;0.52;;
12302;SDS011;6214;48.012;7.862;2024-03-06T12:24:31;4.10;;;0.50;;
12302;SDS011;6214;48.012;7.862;2024-03-06T12:27:00;4.53;;;0.70;;
12302;SDS011;6214;48.012;7.862;2024-03-06T12:29:28;4.20;;;0.50;;
12302;SDS011;6214;48.012;7.862;2024-03-06T12:31:57;4.60;;;0.60;;
12302;SDS011;6214;48.012;7.862;2024-03-06T12:34:25;4.60;;;0.55;;
12302;SDS011;6214;48.012;7.862;2024-03-06T12:36:52;4.65;;;0.55;;
12302;SDS011;6214;48.012;7.862;2024-03-06T12:39:20;4.40;;;0.60;;
12302;SDS011;6214;48.012;7.862;2024-03-06T12:41:49;4.40;;;0.60;;
12302;SDS011;6214;48.012;7.862;2024-03-06T12:44:18;4.40;;;0.80;;
12302;SDS011;6214;48.012;7.862;2024-03-06T12:46:46;4.60;;;0.90;;
12302;SDS011;6214;48.012;7.862;2024-03-06T12:49:15;4.30;;;0.60;;
12302;SDS011;6214;48.012;7.862;2024-03-06T12:51:42;4.50;;;0.70;;
12302;SDS011;6214;48.012;7.862;2024-03-06T12:54:10;5.00;;;0.90;;
12302;SDS011;6214;48.012;7.862;2024-03-06T12:56:37;4.30;;;0.52;;
12302;SDS011;6214;48.012;7.862;2024-03-06T12:59:05;4.40;;;0.70;;
12302;SDS011;6214;48.012;7.862;2024-03-06T13:01:32;4.80;;;0.70;;
12302;SDS011;6214;48.012;7.862;2024-03-06T13:03:59;4.80;;;0.70;;
12302;SDS011;6214;48.012;7.862;2024-03-06T13:06:32;4.75;;;0.70;;
12302;SDS011;6214;48.012;7.862;2024-03-06T13:09:00;4.20;;;0.60;;
12302;SDS011;6214;48.012;7.862;2024-03-06T13:11:27;4.30;;;0.60;;
12302;SDS011;6214;48.012;7.862;2024-03-06T13:13:54;4.70;;;0.90;;
12302;SDS011;6214;48.012;7.862;2024-03-06T13:16:21;4.90;;;0.93;;
12302;SDS011;6214;48.012;7.862;2024-03-06T13:18:48;4.80;;;1.00;;
12302;SDS011;6214;48.012;7.862;2024-03-06T13:21:20;4.95;;;1.02;;
12302;SDS011;6214;48.012;7.862;2024-03-06T13:23:47;4.82;;;0.80;;
12302;SDS011;6214;48.012;7.862;2024-03-06T13:26:14;4.30;;;0.80;;
12302;SDS011;6214;48.012;7.862;2024-03-06T13:28:42;4.63;;;1.00;;
12302;SDS011;6214;48.012;7.862;2024-03-06T13:31:09;4.50;;;0.90;;
12302;SDS011;6214;48.012;7.862;2024-03-06T13:33:36;4.32;;;0.80;;
12302;SDS011;6214;48.012;7.862;2024-03-06T13:36:03;4.40;;;0.80;;
12302;SDS011;6214;48.012;7.862;2024-03-06T13:38:31;4.60;;;0.90;;
12302;SDS011;6214;48.012;7.862;2024-03-06T13:40:58;4.40;;;0.90;;
12302;SDS011;6214;48.012;7.862;2024-03-06T13:43:28;4.65;;;1.15;;
12302;SDS011;6214;48.012;7.862;2024-03-06T13:45:56;4.70;;;1.00;;
12302;SDS011;6214;48.012;7.862;2024-03-06T13:48:23;4.63;;;1.02;;
12302;SDS011;6214;48.012;7.862;2024-03-06T13:50:50;4.70;;;1.20;;
12302;SDS011;6214;48.012;7.862;2024-03-06T13:53:17;4.78;;;1.10;;
12302;SDS011;6214;48.012;7.862;2024-03-06T13:55:44;5.70;;;1.30;;
12302;SDS011;6214;48.012;7.862;2024-03-06T13:58:11;5.50;;;1.20;;
12302;SDS011;6214;48.012;7.862;2024-03-06T14:00:38;4.50;;;0.80;;
12302;SDS011;6214;48.012;7.862;2024-03-06T14:03:05;5.20;;;1.10;;
12302;SDS011;6214;48.012;7.862;2024-03-06T14:05:32;4.55;;;0.88;;
12302;SDS011;6214;48.012;7.862;2024-03-06T14:07:59;4.80;;;1.10;;
12302;SDS011;6214;48.012;7.862;2024-03-06T14:10:26;5.10;;;1.02;;
12302;SDS011;6214;48.012;7.862;2024-03-06T14:12:53;4.90;;;1.20;;
12302;SDS011;6214;48.012;7.862;2024-03-06T14:15:22;5.10;;;1.30;;
12302;SDS011;6214;48.012;7.862;2024-03-06T14:17:50;4.70;;;1.10;;
12302;SDS011;6214;48.012;7.862;2024-03-06T14:20:17;4.75;;;1.15;;
12302;SDS011;6214;48.012;7.862;2024-03-06T14:22:45;4.60;;;0.80;;
12302;SDS011;6214;48.012;7.862;2024-03-06T14:25:12;4.45;;;0.90;;
12302;SDS011;6214;48.012;7.862;2024-03-06T14:27:40;5.03;;;1.10;;
12302;SDS011;6214;48.012;7.862;2024-03-06T14:30:07;4.70;;;1.10;;
12302;SDS011;6214;48.012;7.862;2024-03-06T14:32:35;4.40;;;0.80;;
12302;SDS011;6214;48.012;7.862;2024-03-06T14:35:03;4.80;;;0.88;;
12302;SDS011;6214;48.012;7.862;2024-03-06T14:37:30;4.68;;;0.80;;
12302;SDS011;6214;48.012;7.862;2024-03-06T14:39:57;4.90;;;0.90;;
12302;SDS011;6214;48.012;7.862;2024-03-06T14:42:28;4.30;;;0.80;;
12302;SDS011;6214;48.012;7.862;2024-03-06T14:44:55;4.30;;;0.90;;
12302;SDS011;6214;48.012;7.862;2024-03-06T14:47:22;4.70;;;0.90;;
12302;SDS011;6214;48.012;7.862;2024-03-06T14:49:49;4.50;;;0.90;;
12302;SDS011;6214;48.012;7.862;2024-03-06T14:52:16;5.07;;;1.13;;
12302;SDS011;6214;48.012;7.862;2024-03-06T14:54:43;4.50;;;1.00;;
12302;SDS011;6214;48.012;7.862;2024-03-06T14:57:12;4.40;;;0.90;;
12302;SDS011;6214;48.012;7.862;2024-03-06T14:59:39;4.82;;;0.90;;
12302;SDS011;6214;48.012;7.862;2024-03-06T15:02:06;4.65;;;1.00;;
12302;SDS011;6214;48.012;7.862;2024-03-06T15:04:33;4.40;;;0.80;;
12302;SDS011;6214;48.012;7.862;2024-03-06T15:07:00;4.90;;;0.80;;
12302;SDS011;6214;48.012;7.862;2024-03-06T15:09:27;4.90;;;1.00;;
12302;SDS011;6214;48.012;7.862;2024-03-06T15:11:54;5.10;;;1.00;;
12302;SDS011;6214;48.012;7.862;2024-03-06T15:14:23;4.30;;;0.80;;
12302;SDS011;6214;48.012;7.862;2024-03-06T15:16:51;5.30;;;0.80;;